sensor_id;sensor_type;location;lat;lon;timestamp;pressure;altitude;pressure_sealevel;temperature;humidity
62849;BME280;48941;49.516;8.286;2023-02-01T00:00:08;101047.50;;;5.54;92.91
62849;BME280;48941;49.516;8.286;2023-02-01T00:02:36;101048.28;;;5.56;92.97
62849;BME280;48941;49.516;8.286;2023-02-01T00:05:09;101047.34;;;5.57;93.65
62849;BME280;48941;49.516;8.286;2023-02-01T00:07:37;101039.59;;;5.54;94.21
62849;BME280;48941;49.516;8.286;2023-02-01T00:10:07;101035.22;;;5.53;94.38
62849;BME280;48941;49.516;8.286;2023-02-01T00:12:35;101044.16;;;5.50;94.90
62849;BME280;48941;49.516;8.286;2023-02-01T00:15:03;101023.78;;;5.52;94.71
62849;BME280;48941;49.516;8.286;2023-02-01T00:17:31;101029.06;;;5.52;94.80
62849;BME280;48941;49.516;8.286;2023-02-01T00:19:59;101020.13;;;5.55;94.76
62849;BME280;48941;49.516;8.286;2023-02-01T00:22:28;101017.03;;;5.47;94.69
62849;BME280;48941;49.516;8.286;2023-02-01T00:24:56;101013.59;;;5.45;95.08
62849;BME280;48941;49.516;8.286;2023-02-01T00:27:23;101012.63;;;5.47;94.76
62849;BME280;48941;49.516;8.286;2023-02-01T00:29:51;101014.84;;;5.55;94.55
62849;BME280;48941;49.516;8.286;2023-02-01T00:32:21;101008.00;;;5.51;94.67
62849;BME280;48941;49.516;8.286;2023-02-01T00:34:49;101012.91;;;5.58;95.06
62849;BME280;48941;49.516;8.286;2023-02-01T00:37:17;101012.00;;;5.59;94.74
62849;BME280;48941;49.516;8.286;2023-02-01T00:39:46;101005.69;;;5.62;94.73
62849;BME280;48941;49.516;8.286;2023-02-01T00:42:13;100996.44;;;5.53;95.02
62849;BME280;48941;49.516;8.286;2023-02-01T00:44:41;101015.94;;;5.51;95.19
62849;BME280;48941;49.516;8.286;2023-02-01T00:47:09;101005.47;;;5.49;95.27
62849;BME280;48941;49.516;8.286;2023-02-01T00:49:37;101009.19;;;5.45;95.63
62849;BME280;48941;49.516;8.286;2023-02-01T00:52:05;101014.31;;;5.48;95.59
62849;BME280;48941;49.516;8.286;2023-02-01T00:54:33;101012.81;;;5.43;95.16
62849;BME280;48941;49.516;8.286;2023-02-01T00:57:03;101009.25;;;5.44;95.54
62849;BME280;48941;49.516;8.286;2023-02-01T00:59:31;101011.91;;;5.44;95.38
62849;BME280;48941;49.516;8.286;2023-02-01T01:01:59;101016.31;;;5.43;95.39
62849;BME280;48941;49.516;8.286;2023-02-01T01:04:26;101005.59;;;5.46;95.67
62849;BME280;48941;49.516;8.286;2023-02-01T01:06:54;101017.03;;;5.47;95.44
62849;BME280;48941;49.516;8.286;2023-02-01T01:09:22;101013.47;;;5.48;95.47
62849;BME280;48941;49.516;8.286;2023-02-01T01:11:50;101012.50;;;5.49;95.33
62849;BME280;48941;49.516;8.286;2023-02-01T01:14:20;101012.81;;;5.43;95.81
62849;BME280;48941;49.516;8.286;2023-02-01T01:16:48;101012.50;;;5.49;95.90
62849;BME280;48941;49.516;8.286;2023-02-01T01:19:16;101001.75;;;5.53;95.20
62849;BME280;48941;49.516;8.286;2023-02-01T01:21:44;100997.53;;;5.49;95.30
62849;BME280;48941;49.516;8.286;2023-02-01T01:24:12;101001.81;;;5.52;95.41
62849;BME280;48941;49.516;8.286;2023-02-01T01:26:40;101001.16;;;5.47;95.43
62849;BME280;48941;49.516;8.286;2023-02-01T01:29:09;100995.03;;;5.46;95.57
62849;BME280;48941;49.516;8.286;2023-02-01T01:31:38;101003.03;;;5.45;95.85
62849;BME280;48941;49.516;8.286;2023-02-01T01:34:06;101009.19;;;5.45;95.72
62849;BME280;48941;49.516;8.286;2023-02-01T01:36:34;101000.31;;;5.46;95.73
62849;BME280;48941;49.516;8.286;2023-02-01T01:39:02;100995.09;;;5.45;95.59
62849;BME280;48941;49.516;8.286;2023-02-01T01:41:31;100996.91;;;5.44;95.70
62849;BME280;48941;49.516;8.286;2023-02-01T01:44:00;100992.38;;;5.46;95.51
62849;BME280;48941;49.516;8.286;2023-02-01T01:46:31;100987.19;;;5.45;95.56
62849;BME280;48941;49.516;8.286;2023-02-01T01:49:06;100989.63;;;5.49;95.12
62849;BME280;48941;49.516;8.286;2023-02-01T01:51:37;100987.81;;;5.50;94.95
62849;BME280;48941;49.516;8.286;2023-02-01T01:54:12;100975.69;;;5.46;95.52
62849;BME280;48941;49.516;8.286;2023-02-01T01:56:47;100973.13;;;5.44;95.42
62849;BME280;48941;49.516;8.286;2023-02-01T01:59:17;100981.09;;;5.43;95.42
62849;BME280;48941;49.516;8.286;2023-02-01T02:01:45;100986.25;;;5.46;95.35
62849;BME280;48941;49.516;8.286;2023-02-01T02:04:15;100981.81;;;5.46;95.45
62849;BME280;48941;49.516;8.286;2023-02-01T02:06:45;100983.69;;;5.44;95.38
62849;BME280;48941;49.516;8.286;2023-02-01T02:09:16;100976.53;;;5.46;95.38
62849;BME280;48941;49.516;8.286;2023-02-01T02:11:43;100971.38;;;5.43;95.43
62849;BME280;48941;49.516;8.286;2023-02-01T02:14:13;100981.03;;;5.44;95.33
62849;BME280;48941;49.516;8.286;2023-02-01T02:17:10;100976.41;;;5.49;95.07
62849;BME280;48941;49.516;8.286;2023-02-01T02:23:15;100979.19;;;5.46;94.96
62849;BME280;48941;49.516;8.286;2023-02-01T02:26:16;100971.19;;;5.48;94.96
62849;BME280;48941;49.516;8.286;2023-02-01T02:31:58;100957.59;;;5.55;94.97
62849;BME280;48941;49.516;8.286;2023-02-01T02:34:34;100948.72;;;5.56;94.79
62849;BME280;48941;49.516;8.286;2023-02-01T02:37:11;100937.91;;;5.61;94.99
62849;BME280;48941;49.516;8.286;2023-02-01T02:39:50;100935.06;;;5.66;95.21
62849;BME280;48941;49.516;8.286;2023-02-01T02:42:27;100925.41;;;5.65;95.32
62849;BME280;48941;49.516;8.286;2023-02-01T02:45:20;100925.41;;;5.65;95.12
62849;BME280;48941;49.516;8.286;2023-02-01T02:48:13;100911.28;;;5.66;95.11
62849;BME280;48941;49.516;8.286;2023-02-01T02:50:49;100907.22;;;5.76;94.97
62849;BME280;48941;49.516;8.286;2023-02-01T02:53:38;100916.22;;;5.72;94.98
62849;BME280;48941;49.516;8.286;2023-02-01T02:56:26;100919.59;;;5.75;94.89
62849;BME280;48941;49.516;8.286;2023-02-01T02:59:16;100927.59;;;5.74;94.77
62849;BME280;48941;49.516;8.286;2023-02-01T03:02:04;100928.34;;;5.76;94.75
62849;BME280;48941;49.516;8.286;2023-02-01T03:04:52;100922.13;;;5.77;94.36
62849;BME280;48941;49.516;8.286;2023-02-01T03:07:55;100910.78;;;5.75;94.45
62849;BME280;48941;49.516;8.286;2023-02-01T03:10:30;100924.88;;;5.75;94.30
62849;BME280;48941;49.516;8.286;2023-02-01T03:13:03;100917.72;;;5.77;94.66
62849;BME280;48941;49.516;8.286;2023-02-01T03:15:36;100916.75;;;5.78;94.34
62849;BME280;48941;49.516;8.286;2023-02-01T03:18:11;100920.19;;;5.81;94.24
62849;BME280;48941;49.516;8.286;2023-02-01T03:20:44;100920.03;;;5.84;93.94
62849;BME280;48941;49.516;8.286;2023-02-01T03:23:19;100905.88;;;5.85;93.83
62849;BME280;48941;49.516;8.286;2023-02-01T03:25:51;100914.75;;;5.84;94.03
62849;BME280;48941;49.516;8.286;2023-02-01T03:28:22;100905.88;;;5.85;93.90
62849;BME280;48941;49.516;8.286;2023-02-01T03:30:50;100903.16;;;5.86;93.97
62849;BME280;48941;49.516;8.286;2023-02-01T03:33:21;100905.78;;;5.86;94.05
62849;BME280;48941;49.516;8.286;2023-02-01T03:35:57;100906.63;;;5.87;93.87
62849;BME280;48941;49.516;8.286;2023-02-01T03:38:30;100904.94;;;5.86;93.70
62849;BME280;48941;49.516;8.286;2023-02-01T03:41:06;100914.25;;;5.93;93.17
62849;BME280;48941;49.516;8.286;2023-02-01T03:43:44;100924.16;;;5.89;93.28
62849;BME280;48941;49.516;8.286;2023-02-01T03:46:19;100927.66;;;5.90;92.93
62849;BME280;48941;49.516;8.286;2023-02-01T03:48:49;100928.56;;;5.89;92.60
62849;BME280;48941;49.516;8.286;2023-02-01T03:51:20;100921.59;;;5.88;92.50
62849;BME280;48941;49.516;8.286;2023-02-01T03:53:51;100930.28;;;5.90;92.42
62849;BME280;48941;49.516;8.286;2023-02-01T03:56:22;100927.34;;;5.96;91.67
62849;BME280;48941;49.516;8.286;2023-02-01T03:58:52;100919.88;;;6.04;91.26
62849;BME280;48941;49.516;8.286;2023-02-01T04:01:27;100916.53;;;6.01;90.92
62849;BME280;48941;49.516;8.286;2023-02-01T04:03:55;100906.13;;;5.97;91.09
62849;BME280;48941;49.516;8.286;2023-02-01T04:06:24;100910.25;;;6.03;90.33
62849;BME280;48941;49.516;8.286;2023-02-01T04:08:53;100912.88;;;6.03;90.37
62849;BME280;48941;49.516;8.286;2023-02-01T04:11:21;100901.34;;;6.04;90.10
62849;BME280;48941;49.516;8.286;2023-02-01T04:13:49;100895.81;;;6.09;89.61
62849;BME280;48941;49.516;8.286;2023-02-01T04:16:16;100903.59;;;6.12;89.43
62849;BME280;48941;49.516;8.286;2023-02-01T04:18:44;100903.69;;;6.10;89.27
62849;BME280;48941;49.516;8.286;2023-02-01T04:21:12;100910.00;;;6.08;89.52
62849;BME280;48941;49.516;8.286;2023-02-01T04:23:40;100914.50;;;6.06;89.67
62849;BME280;48941;49.516;8.286;2023-02-01T04:26:09;100920.66;;;6.06;89.55
62849;BME280;48941;49.516;8.286;2023-02-01T04:28:36;100926.69;;;6.08;89.03
62849;BME280;48941;49.516;8.286;2023-02-01T04:31:04;100928.00;;;6.17;88.60
62849;BME280;48941;49.516;8.286;2023-02-01T04:33:32;100921.28;;;6.11;88.66
62849;BME280;48941;49.516;8.286;2023-02-01T04:36:00;100928.19;;;6.14;88.30
62849;BME280;48941;49.516;8.286;2023-02-01T04:38:28;100927.00;;;6.20;87.76
62849;BME280;48941;49.516;8.286;2023-02-01T04:40:58;100915.81;;;6.14;87.62
62849;BME280;48941;49.516;8.286;2023-02-01T04:43:28;100917.53;;;6.15;87.95
62849;BME280;48941;49.516;8.286;2023-02-01T04:45:55;100915.81;;;6.14;88.09
62849;BME280;48941;49.516;8.286;2023-02-01T04:48:23;100911.28;;;6.16;87.93
62849;BME280;48941;49.516;8.286;2023-02-01T04:50:51;100902.34;;;6.19;87.98
62849;BME280;48941;49.516;8.286;2023-02-01T04:53:19;100903.34;;;6.16;88.65
62849;BME280;48941;49.516;8.286;2023-02-01T04:55:48;100904.38;;;6.14;88.92
62849;BME280;48941;49.516;8.286;2023-02-01T04:58:16;100909.00;;;6.26;88.13
62849;BME280;48941;49.516;8.286;2023-02-01T05:00:45;100903.19;;;6.20;88.69
62849;BME280;48941;49.516;8.286;2023-02-01T05:03:13;100905.59;;;6.24;88.76
62849;BME280;48941;49.516;8.286;2023-02-01T05:05:40;100922.16;;;6.28;89.49
62849;BME280;48941;49.516;8.286;2023-02-01T05:08:09;100917.34;;;6.18;91.18
62849;BME280;48941;49.516;8.286;2023-02-01T05:10:36;100922.88;;;6.14;92.35
62849;BME280;48941;49.516;8.286;2023-02-01T05:13:04;100932.44;;;6.16;92.34
62849;BME280;48941;49.516;8.286;2023-02-01T05:15:51;100921.16;;;6.13;92.47
62849;BME280;48941;49.516;8.286;2023-02-01T05:18:19;100923.03;;;6.11;92.87
62849;BME280;48941;49.516;8.286;2023-02-01T05:20:47;100924.47;;;6.01;92.94
62849;BME280;48941;49.516;8.286;2023-02-01T05:23:14;100933.09;;;6.04;92.83
62849;BME280;48941;49.516;8.286;2023-02-01T05:25:42;100938.72;;;5.98;93.03
62849;BME280;48941;49.516;8.286;2023-02-01T05:28:10;100945.03;;;5.95;92.86
62849;BME280;48941;49.516;8.286;2023-02-01T05:30:38;100943.34;;;5.93;93.75
62849;BME280;48941;49.516;8.286;2023-02-01T05:33:09;100937.59;;;5.85;93.59
62849;BME280;48941;49.516;8.286;2023-02-01T05:35:36;100934.09;;;5.84;93.81
62849;BME280;48941;49.516;8.286;2023-02-01T05:38:04;100929.84;;;5.82;93.54
62849;BME280;48941;49.516;8.286;2023-02-01T05:40:32;100940.41;;;5.82;94.05
62849;BME280;48941;49.516;8.286;2023-02-01T05:43:00;100929.13;;;5.78;94.05
62849;BME280;48941;49.516;8.286;2023-02-01T05:45:28;100925.00;;;5.72;95.22
62849;BME280;48941;49.516;8.286;2023-02-01T05:47:55;100919.66;;;5.74;95.40
62849;BME280;48941;49.516;8.286;2023-02-01T05:50:25;100910.63;;;5.78;94.99
62849;BME280;48941;49.516;8.286;2023-02-01T05:52:52;100910.78;;;5.75;95.22
62849;BME280;48941;49.516;8.286;2023-02-01T05:55:20;100914.44;;;5.72;95.50
62849;BME280;48941;49.516;8.286;2023-02-01T05:57:48;100903.25;;;5.67;95.63
62849;BME280;48941;49.516;8.286;2023-02-01T06:00:16;100897.56;;;5.75;94.36
62849;BME280;48941;49.516;8.286;2023-02-01T06:02:47;100895.16;;;5.70;94.37
62849;BME280;48941;49.516;8.286;2023-02-01T06:05:15;100904.13;;;5.68;94.39
62849;BME280;48941;49.516;8.286;2023-02-01T06:07:44;100908.38;;;5.70;94.17
62849;BME280;48941;49.516;8.286;2023-02-01T06:10:12;100902.25;;;5.70;94.28
62849;BME280;48941;49.516;8.286;2023-02-01T06:12:40;100908.56;;;5.67;93.98
62849;BME280;48941;49.516;8.286;2023-02-01T06:15:09;100919.03;;;5.69;94.06
62849;BME280;48941;49.516;8.286;2023-02-01T06:17:37;100929.69;;;5.67;94.04
62849;BME280;48941;49.516;8.286;2023-02-01T06:20:08;100934.09;;;5.67;94.15
62849;BME280;48941;49.516;8.286;2023-02-01T06:22:37;100936.06;;;5.63;94.35
62849;BME280;48941;49.516;8.286;2023-02-01T06:25:08;100931.63;;;5.64;94.42
62849;BME280;48941;49.516;8.286;2023-02-01T06:27:37;100925.56;;;5.62;94.57
62849;BME280;48941;49.516;8.286;2023-02-01T06:30:06;100926.28;;;5.65;94.28
62849;BME280;48941;49.516;8.286;2023-02-01T06:32:34;100933.44;;;5.63;94.41
62849;BME280;48941;49.516;8.286;2023-02-01T06:35:02;100934.50;;;5.59;94.98
62849;BME280;48941;49.516;8.286;2023-02-01T06:37:30;100917.72;;;5.60;94.73
62849;BME280;48941;49.516;8.286;2023-02-01T06:39:57;100929.13;;;5.61;93.76
62849;BME280;48941;49.516;8.286;2023-02-01T06:42:27;100923.63;;;5.65;92.58
62849;BME280;48941;49.516;8.286;2023-02-01T06:44:54;100918.19;;;5.68;91.49
62849;BME280;48941;49.516;8.286;2023-02-01T06:47:22;100913.97;;;5.64;91.50
62849;BME280;48941;49.516;8.286;2023-02-01T06:49:50;100913.91;;;5.66;90.98
62849;BME280;48941;49.516;8.286;2023-02-01T06:52:18;100918.34;;;5.65;90.59
62849;BME280;48941;49.516;8.286;2023-02-01T06:54:45;100922.94;;;5.62;91.05
62849;BME280;48941;49.516;8.286;2023-02-01T06:57:14;100929.84;;;5.64;90.19
62849;BME280;48941;49.516;8.286;2023-02-01T06:59:43;100922.16;;;5.59;89.70
62849;BME280;48941;49.516;8.286;2023-02-01T07:02:11;100931.63;;;5.64;88.72
62849;BME280;48941;49.516;8.286;2023-02-01T07:04:39;100920.34;;;5.60;88.06
62849;BME280;48941;49.516;8.286;2023-02-01T07:07:07;100931.78;;;5.61;87.37
62849;BME280;48941;49.516;8.286;2023-02-01T07:09:35;100928.44;;;5.57;87.04
62849;BME280;48941;49.516;8.286;2023-02-01T07:12:03;100933.03;;;5.53;87.99
62849;BME280;48941;49.516;8.286;2023-02-01T07:14:31;100918.81;;;5.56;88.11
62849;BME280;48941;49.516;8.286;2023-02-01T07:17:00;100909.63;;;5.46;88.51
62849;BME280;48941;49.516;8.286;2023-02-01T07:19:27;100909.19;;;5.37;88.71
62849;BME280;48941;49.516;8.286;2023-02-01T07:21:55;100909.25;;;5.36;89.37
62849;BME280;48941;49.516;8.286;2023-02-01T07:24:23;100918.66;;;5.42;89.70
62849;BME280;48941;49.516;8.286;2023-02-01T07:26:51;100920.53;;;5.39;89.90
62849;BME280;48941;49.516;8.286;2023-02-01T07:29:19;100931.09;;;5.39;90.38
62849;BME280;48941;49.516;8.286;2023-02-01T07:31:47;100931.16;;;5.38;90.42
62849;BME280;48941;49.516;8.286;2023-02-01T07:34:16;100933.88;;;5.36;90.49
62849;BME280;48941;49.516;8.286;2023-02-01T07:36:44;100929.38;;;5.38;89.85
62849;BME280;48941;49.516;8.286;2023-02-01T07:39:12;100927.28;;;5.45;89.41
62849;BME280;48941;49.516;8.286;2023-02-01T07:41:39;100926.03;;;5.52;88.91
62849;BME280;48941;49.516;8.286;2023-02-01T07:44:07;100933.88;;;5.54;89.19
62849;BME280;48941;49.516;8.286;2023-02-01T07:46:35;100929.63;;;5.51;89.52
62849;BME280;48941;49.516;8.286;2023-02-01T07:49:05;100940.19;;;5.51;89.63
62849;BME280;48941;49.516;8.286;2023-02-01T07:51:34;100957.59;;;5.55;89.46
62849;BME280;48941;49.516;8.286;2023-02-01T07:54:03;100962.00;;;5.55;89.63
62849;BME280;48941;49.516;8.286;2023-02-01T07:56:31;100962.78;;;5.57;89.43
62849;BME280;48941;49.516;8.286;2023-02-01T07:58:59;100967.16;;;5.58;89.49
62849;BME280;48941;49.516;8.286;2023-02-01T08:01:30;100963.50;;;5.61;89.30
62849;BME280;48941;49.516;8.286;2023-02-01T08:03:58;100967.69;;;5.65;89.29
62849;BME280;48941;49.516;8.286;2023-02-01T08:06:27;100972.97;;;5.65;89.03
62849;BME280;48941;49.516;8.286;2023-02-01T08:08:57;100969.81;;;5.75;88.48
62849;BME280;48941;49.516;8.286;2023-02-01T08:11:26;100973.13;;;5.79;88.28
62849;BME280;48941;49.516;8.286;2023-02-01T08:13:54;100971.25;;;5.81;88.52
62849;BME280;48941;49.516;8.286;2023-02-01T08:16:22;100976.66;;;5.79;88.53
62849;BME280;48941;49.516;8.286;2023-02-01T08:18:51;100990.72;;;5.80;88.30
62849;BME280;48941;49.516;8.286;2023-02-01T08:21:21;100984.41;;;5.83;88.09
62849;BME280;48941;49.516;8.286;2023-02-01T08:23:50;100986.66;;;5.90;88.53
62849;BME280;48941;49.516;8.286;2023-02-01T08:26:21;100995.25;;;5.95;88.47
62849;BME280;48941;49.516;8.286;2023-02-01T08:28:52;101000.31;;;6.00;88.31
62849;BME280;48941;49.516;8.286;2023-02-01T08:31:22;101007.84;;;6.08;87.59
62849;BME280;48941;49.516;8.286;2023-02-01T08:33:52;100999.72;;;6.11;87.19
62849;BME280;48941;49.516;8.286;2023-02-01T08:36:21;101007.53;;;6.14;87.04
62849;BME280;48941;49.516;8.286;2023-02-01T08:38:49;100998.75;;;6.13;87.24
62849;BME280;48941;49.516;8.286;2023-02-01T08:41:20;100999.19;;;6.22;86.56
62849;BME280;48941;49.516;8.286;2023-02-01T08:43:48;100998.50;;;6.18;86.37
62849;BME280;48941;49.516;8.286;2023-02-01T08:46:17;100993.06;;;6.21;86.17
62849;BME280;48941;49.516;8.286;2023-02-01T08:48:45;100988.75;;;6.18;85.50
62849;BME280;48941;49.516;8.286;2023-02-01T08:51:15;100994.81;;;6.21;85.33
62849;BME280;48941;49.516;8.286;2023-02-01T08:53:44;101006.28;;;6.21;85.68
62849;BME280;48941;49.516;8.286;2023-02-01T08:56:13;100994.34;;;6.30;84.75
62849;BME280;48941;49.516;8.286;2023-02-01T08:58:42;100994.81;;;6.38;83.64
62849;BME280;48941;49.516;8.286;2023-02-01T09:01:13;100999.75;;;6.44;82.83
62849;BME280;48941;49.516;8.286;2023-02-01T09:03:41;100987.16;;;6.49;82.54
62849;BME280;48941;49.516;8.286;2023-02-01T09:06:11;100987.59;;;6.57;80.97
62849;BME280;48941;49.516;8.286;2023-02-01T09:08:40;100991.19;;;6.72;78.69
62849;BME280;48941;49.516;8.286;2023-02-01T09:11:11;100990.84;;;6.78;77.52
62849;BME280;48941;49.516;8.286;2023-02-01T09:13:39;101005.41;;;6.87;76.69
62849;BME280;48941;49.516;8.286;2023-02-01T09:16:09;101002.22;;;6.96;73.84
62849;BME280;48941;49.516;8.286;2023-02-01T09:18:37;100997.63;;;7.00;73.45
62849;BME280;48941;49.516;8.286;2023-02-01T09:21:25;101009.16;;;6.99;74.16
62849;BME280;48941;49.516;8.286;2023-02-01T09:23:53;101014.28;;;7.02;73.23
62849;BME280;48941;49.516;8.286;2023-02-01T09:26:21;101017.78;;;7.03;72.61
62849;BME280;48941;49.516;8.286;2023-02-01T09:28:57;101022.91;;;6.90;73.01
62849;BME280;48941;49.516;8.286;2023-02-01T09:31:26;101022.06;;;6.89;72.74
62849;BME280;48941;49.516;8.286;2023-02-01T09:33:54;101028.47;;;6.85;73.93
62849;BME280;48941;49.516;8.286;2023-02-01T09:36:22;101031.53;;;6.93;74.50
62849;BME280;48941;49.516;8.286;2023-02-01T09:38:50;101032.25;;;6.97;74.18
62849;BME280;48941;49.516;8.286;2023-02-01T09:41:26;101034.19;;;6.93;74.47
62849;BME280;48941;49.516;8.286;2023-02-01T09:44:07;101054.75;;;6.88;75.22
62849;BME280;48941;49.516;8.286;2023-02-01T09:46:37;101063.88;;;6.83;74.13
62849;BME280;48941;49.516;8.286;2023-02-01T09:49:10;101061.94;;;6.86;74.32
62849;BME280;48941;49.516;8.286;2023-02-01T09:51:43;101075.03;;;6.89;74.50
62849;BME280;48941;49.516;8.286;2023-02-01T09:54:16;101071.81;;;6.83;75.17
62849;BME280;48941;49.516;8.286;2023-02-01T09:56:47;101076.97;;;6.86;74.38
62849;BME280;48941;49.516;8.286;2023-02-01T09:59:25;101081.56;;;6.82;73.60
62849;BME280;48941;49.516;8.286;2023-02-01T10:01:59;101098.72;;;6.75;75.18
62849;BME280;48941;49.516;8.286;2023-02-01T10:04:28;101087.19;;;6.76;72.77
62849;BME280;48941;49.516;8.286;2023-02-01T10:07:06;101089.78;;;6.77;73.83
62849;BME280;48941;49.516;8.286;2023-02-01T10:09:46;101097.94;;;6.73;74.85
62849;BME280;48941;49.516;8.286;2023-02-01T10:15:30;101089.91;;;6.74;74.88
62849;BME280;48941;49.516;8.286;2023-02-01T10:18:18;101095.38;;;6.71;75.45
62849;BME280;48941;49.516;8.286;2023-02-01T10:20:57;101089.41;;;6.68;75.83
62849;BME280;48941;49.516;8.286;2023-02-01T10:23:44;101098.72;;;6.75;75.28
62849;BME280;48941;49.516;8.286;2023-02-01T10:26:19;101103.16;;;6.74;75.79
62849;BME280;48941;49.516;8.286;2023-02-01T10:28:50;101104.19;;;6.72;74.85
62849;BME280;48941;49.516;8.286;2023-02-01T10:31:18;101095.53;;;6.68;75.19
62849;BME280;48941;49.516;8.286;2023-02-01T10:33:52;101098.13;;;6.70;75.24
62849;BME280;48941;49.516;8.286;2023-02-01T10:36:27;101100.69;;;6.71;76.10
62849;BME280;48941;49.516;8.286;2023-02-01T10:38:57;101094.44;;;6.72;75.47
62849;BME280;48941;49.516;8.286;2023-02-01T10:41:30;101091.97;;;6.69;75.48
62849;BME280;48941;49.516;8.286;2023-02-01T10:44:00;101097.25;;;6.69;75.74
62849;BME280;48941;49.516;8.286;2023-02-01T10:46:31;101091.19;;;6.67;75.58
62849;BME280;48941;49.516;8.286;2023-02-01T10:49:03;101091.97;;;6.69;75.29
62849;BME280;48941;49.516;8.286;2023-02-01T10:51:42;101076.69;;;6.74;75.17
62849;BME280;48941;49.516;8.286;2023-02-01T10:54:16;101073.97;;;6.76;74.59
62849;BME280;48941;49.516;8.286;2023-02-01T10:56:44;101064.22;;;6.76;74.35
62849;BME280;48941;49.516;8.286;2023-02-01T10:59:16;101060.66;;;6.77;74.40
62849;BME280;48941;49.516;8.286;2023-02-01T11:01:45;101052.78;;;6.76;74.00
62849;BME280;48941;49.516;8.286;2023-02-01T11:04:16;101042.88;;;6.80;73.86
62849;BME280;48941;49.516;8.286;2023-02-01T11:06:47;101034.31;;;6.74;74.13
62849;BME280;48941;49.516;8.286;2023-02-01T11:09:19;101035.78;;;6.80;74.70
62849;BME280;48941;49.516;8.286;2023-02-01T11:11:56;101039.97;;;6.84;72.63
62849;BME280;48941;49.516;8.286;2023-02-01T11:14:37;101035.72;;;6.82;72.48
62849;BME280;48941;49.516;8.286;2023-02-01T11:17:25;101028.63;;;6.82;73.12
62849;BME280;48941;49.516;8.286;2023-02-01T11:20:00;101035.53;;;6.85;71.82
62849;BME280;48941;49.516;8.286;2023-02-01T11:22:28;101024.28;;;6.81;71.12
62849;BME280;48941;49.516;8.286;2023-02-01T11:24:57;101029.66;;;6.80;71.82
62849;BME280;48941;49.516;8.286;2023-02-01T11:27:27;101036.75;;;6.79;71.88
62849;BME280;48941;49.516;8.286;2023-02-01T11:29:59;101035.44;;;6.86;71.46
62849;BME280;48941;49.516;8.286;2023-02-01T11:32:29;101018.78;;;6.84;71.73
62849;BME280;48941;49.516;8.286;2023-02-01T11:35:01;101016.75;;;6.89;70.75
62849;BME280;48941;49.516;8.286;2023-02-01T11:37:33;101024.34;;;6.80;71.85
62849;BME280;48941;49.516;8.286;2023-02-01T11:40:18;101026.31;;;6.76;72.73
62849;BME280;48941;49.516;8.286;2023-02-01T11:42:55;101023.72;;;6.74;73.21
62849;BME280;48941;49.516;8.286;2023-02-01T11:45:27;101020.59;;;6.84;72.92
62849;BME280;48941;49.516;8.286;2023-02-01T11:47:56;101011.88;;;6.82;72.82
62849;BME280;48941;49.516;8.286;2023-02-01T11:50:30;101018.09;;;6.81;72.77
62849;BME280;48941;49.516;8.286;2023-02-01T11:56:05;101007.69;;;6.77;73.73
62849;BME280;48941;49.516;8.286;2023-02-01T11:58:50;101005.63;;;6.83;73.26
62849;BME280;48941;49.516;8.286;2023-02-01T12:01:33;101010.84;;;6.84;72.10
62849;BME280;48941;49.516;8.286;2023-02-01T12:04:26;101020.75;;;6.96;71.17
62849;BME280;48941;49.516;8.286;2023-02-01T12:07:05;101020.53;;;6.85;70.81
62849;BME280;48941;49.516;8.286;2023-02-01T12:09:48;101022.47;;;6.82;70.90
62849;BME280;48941;49.516;8.286;2023-02-01T12:12:25;101013.34;;;6.87;71.11
62849;BME280;48941;49.516;8.286;2023-02-01T12:15:08;101020.94;;;6.93;71.72
62849;BME280;48941;49.516;8.286;2023-02-01T12:17:52;101020.19;;;6.91;72.20
62849;BME280;48941;49.516;8.286;2023-02-01T12:20:38;101013.00;;;6.93;71.30
62849;BME280;48941;49.516;8.286;2023-02-01T12:23:21;101009.66;;;6.90;71.36
62849;BME280;48941;49.516;8.286;2023-02-01T12:26:11;101007.72;;;6.93;71.72
62849;BME280;48941;49.516;8.286;2023-02-01T12:28:54;101005.97;;;6.92;71.31
62849;BME280;48941;49.516;8.286;2023-02-01T12:31:38;100999.84;;;6.92;71.15
62849;BME280;48941;49.516;8.286;2023-02-01T12:34:27;101008.72;;;6.91;71.62
62849;BME280;48941;49.516;8.286;2023-02-01T12:37:03;101007.88;;;6.90;71.16
62849;BME280;48941;49.516;8.286;2023-02-01T12:39:40;101000.88;;;6.89;71.10
62849;BME280;48941;49.516;8.286;2023-02-01T12:42:13;101001.28;;;6.82;71.66
62849;BME280;48941;49.516;8.286;2023-02-01T12:44:46;100999.69;;;6.79;71.88
62849;BME280;48941;49.516;8.286;2023-02-01T12:47:21;100990.78;;;6.80;72.13
62849;BME280;48941;49.516;8.286;2023-02-01T12:49:57;100989.09;;;6.79;71.73
62849;BME280;48941;49.516;8.286;2023-02-01T12:52:32;100983.00;;;6.77;72.13
62849;BME280;48941;49.516;8.286;2023-02-01T12:55:10;100970.28;;;6.84;70.47
62849;BME280;48941;49.516;8.286;2023-02-01T12:57:46;100971.31;;;6.81;70.94
62849;BME280;48941;49.516;8.286;2023-02-01T13:00:22;100966.19;;;6.78;70.98
62849;BME280;48941;49.516;8.286;2023-02-01T13:02:56;100952.00;;;6.79;70.54
62849;BME280;48941;49.516;8.286;2023-02-01T13:05:30;100952.78;;;6.81;71.41
62849;BME280;48941;49.516;8.286;2023-02-01T13:08:01;100941.22;;;6.82;71.42
62849;BME280;48941;49.516;8.286;2023-02-01T13:10:35;100940.31;;;6.83;70.87
62849;BME280;48941;49.516;8.286;2023-02-01T13:13:04;100937.47;;;6.86;70.54
62849;BME280;48941;49.516;8.286;2023-02-01T13:15:40;100935.69;;;6.87;70.13
62849;BME280;48941;49.516;8.286;2023-02-01T13:18:14;100912.88;;;6.84;70.57
62849;BME280;48941;49.516;8.286;2023-02-01T13:20:49;100912.81;;;6.86;69.85
62849;BME280;48941;49.516;8.286;2023-02-01T13:23:25;100919.78;;;6.87;70.15
62849;BME280;48941;49.516;8.286;2023-02-01T13:25:56;100922.53;;;6.85;69.84
62849;BME280;48941;49.516;8.286;2023-02-01T13:28:26;100913.28;;;6.92;69.12
62849;BME280;48941;49.516;8.286;2023-02-01T13:31:10;100906.72;;;7.00;69.56
62849;BME280;48941;49.516;8.286;2023-02-01T13:33:52;100905.00;;;6.98;69.33
62849;BME280;48941;49.516;8.286;2023-02-01T13:36:53;100912.78;;;7.02;69.09